Time;durP1;ratioP1;P1;durP2;ratioP2;P2;SDS_P1;SDS_P2;PMS_P1;PMS_P2;Temp;Humidity;BMP_temperature;BMP_pressure;BME280_temperature;BME280_humidity;BME280_pressure;Samples;Min_cycle;Max_cycle;Signal;HPM_P1;HPM_P2
2021/05/27 00:00:11;;;;;;;;;;;;;;;7.96;100.00;96038.94;1279053;23;20014;-65
2021/05/27 00:00:42;;;;;;;;;;;;;;;7.98;100.00;96039.50;1279127;23;19903;-65
2021/05/27 00:01:12;;;;;;;;;;;;;;;7.98;100.00;96042.94;1279239;23;20226;-65
2021/05/27 00:01:43;;;;;;;;;;;;;;;7.98;100.00;96039.50;1279070;23;19920;-65
2021/05/27 00:02:13;;;;;;;;;;;;;;;8.00;100.00;96043.53;1279063;23;19896;-66
2021/05/27 00:02:43;;;;;;;;;;;;;;;7.99;100.00;96038.47;1279195;23;19943;-64
2021/05/27 00:03:14;;;;;;;;;;;;;;;7.98;100.00;96040.28;1279169;23;20306;-65
2021/05/27 00:03:44;;;;;;;;;;;;;;;7.99;100.00;96036.59;1279017;23;19896;-65
2021/05/27 00:04:14;;;;;;;;;;;;;;;8.00;100.00;96038.19;1279133;23;19931;-65
2021/05/27 00:04:44;;;;;;;;;;;;;;;8.01;100.00;96034.47;1278981;23;20337;-65
2021/05/27 00:05:15;;;;;;;;;;;;;;;8.03;100.00;96036.88;1278620;23;19950;-65
2021/05/27 00:05:45;;;;;;;;;;;;;;;8.02;100.00;96033.41;1278611;23;19971;-65
2021/05/27 00:06:15;;;;;;;;;;;;;;;8.04;100.00;96035.84;1278694;23;19951;-64
2021/05/27 00:06:45;;;;;;;;;;;;;;;8.03;100.00;96043.00;1278481;23;19905;-64
2021/05/27 00:07:16;;;;;;;;;;;;;;;8.05;100.00;96038.25;1278947;23;19928;-65
2021/05/27 00:07:46;;;;;;;;;;;;;;;8.05;100.00;96034.78;1279248;23;19904;-65
2021/05/27 00:08:16;;;;;;;;;;;;;;;8.04;100.00;96036.63;1279255;23;20360;-64
2021/05/27 00:08:47;;;;;;;;;;;;;;;8.01;100.00;96031.00;1278617;23;19935;-65
2021/05/27 00:09:17;;;;;;;;;;;;;;;8.02;100.00;96030.75;1272460;23;20247;-64
2021/05/27 00:09:47;;;;;;;;;;;;;;;8.02;100.00;96037.94;1272677;23;19905;-65
2021/05/27 00:10:18;;;;;;;;;;;;;;;8.04;100.00;96043.81;1272591;23;19904;-65
2021/05/27 00:10:48;;;;;;;;;;;;;;;8.05;100.00;96032.91;1278821;23;19912;-64
2021/05/27 00:11:19;;;;;;;;;;;;;;;8.05;100.00;96037.44;1279105;23;20332;-65
2021/05/27 00:11:49;;;;;;;;;;;;;;;8.05;100.00;96040.09;1279165;23;19904;-65
2021/05/27 00:12:19;;;;;;;;;;;;;;;8.02;100.00;96041.41;1279068;23;19900;-65
2021/05/27 00:12:50;;;;;;;;;;;;;;;8.02;100.00;96033.41;1279271;23;19904;-65
2021/05/27 00:13:20;;;;;;;;;;;;;;;7.99;100.00;96036.59;1279247;23;19939;-65
2021/05/27 00:13:51;;;;;;;;;;;;;;;8.00;100.00;96042.72;1279160;23;19911;-65
2021/05/27 00:14:21;;;;;;;;;;;;;;;7.98;100.00;96034.16;1279187;23;20325;-65
2021/05/27 00:14:51;;;;;;;;;;;;;;;7.97;100.00;96040.56;1278701;23;20275;-65
2021/05/27 00:15:22;;;;;;;;;;;;;;;7.97;100.00;96038.69;1280343;23;19901;-65
2021/05/27 00:15:52;;;;;;;;;;;;;;;7.97;100.00;96044.00;1280595;23;19904;-65
2021/05/27 00:16:22;;;;;;;;;;;;;;;7.98;100.00;96042.94;1280525;23;19896;-65
2021/05/27 00:16:53;;;;;;;;;;;;;;;7.99;100.00;96039.25;1280713;23;20265;-65
2021/05/27 00:17:23;;;;;;;;;;;;;;;7.99;100.00;96041.13;1280990;23;19912;-66
2021/05/27 00:17:53;;;;;;;;;;;;;;;7.98;100.00;96034.16;1280764;23;19963;-65
2021/05/27 00:18:24;;;;;;;;;;;;;;;7.98;100.00;96040.28;1280914;23;19900;-65
2021/05/27 00:18:54;;;;;;;;;;;;;;;7.99;100.00;96036.59;1280861;23;19932;-65
2021/05/27 00:19:24;;;;;;;;;;;;;;;8.02;100.00;96040.59;1280985;23;19900;-65
2021/05/27 00:19:54;;;;;;;;;;;;;;;7.99;100.00;96038.47;1280751;23;19911;-66
2021/05/27 00:20:25;;;;;;;;;;;;;;;7.99;100.00;96041.13;1280763;23;20293;-65
2021/05/27 00:20:55;;;;;;;;;;;;;;;7.99;100.00;96035.78;1280772;23;19907;-66
2021/05/27 00:21:25;;;;;;;;;;;;;;;8.02;100.00;96036.06;1280923;23;20381;-66
2021/05/27 00:21:56;;;;;;;;;;;;;;;8.00;100.00;96037.41;1280613;23;19994;-65
2021/05/27 00:22:26;;;;;;;;;;;;;;;7.98;100.00;96037.63;1280145;23;19900;-66
2021/05/27 00:22:56;;;;;;;;;;;;;;;7.98;100.00;96034.16;1280631;23;19923;-65
2021/05/27 00:23:26;;;;;;;;;;;;;;;8.00;100.00;96034.72;1280436;23;19923;-65
2021/05/27 00:23:57;;;;;;;;;;;;;;;8.01;100.00;96039.78;1280672;23;19904;-65
2021/05/27 00:24:29;;;;;;;;;;;;;;;8.01;100.00;96031.81;1281008;23;19927;-65
2021/05/27 00:24:59;;;;;;;;;;;;;;;8.01;100.00;96036.34;1280658;23;20027;-65
2021/05/27 00:25:30;;;;;;;;;;;;;;;8.02;100.00;96035.28;1280217;23;20011;-65
2021/05/27 00:26:00;;;;;;;;;;;;;;;8.00;100.00;96035.53;1278986;23;20226;-65
2021/05/27 00:26:30;;;;;;;;;;;;;;;8.00;100.00;96037.41;1278277;23;19931;-65
2021/05/27 00:27:01;;;;;;;;;;;;;;;8.01;100.00;96037.13;1278132;23;19915;-65
2021/05/27 00:27:31;;;;;;;;;;;;;;;8.04;100.00;96035.84;1278481;23;19910;-65
2021/05/27 00:28:01;;;;;;;;;;;;;;;8.04;100.00;96036.63;1278575;23;19904;-65
2021/05/27 00:28:32;;;;;;;;;;;;;;;8.05;100.00;96038.25;1278868;23;20129;-65
2021/05/27 00:29:02;;;;;;;;;;;;;;;8.05;100.00;96040.91;1278469;23;20007;-65
2021/05/27 00:29:33;;;;;;;;;;;;;;;8.06;100.00;96041.72;1278596;23;19904;-65
2021/05/27 00:30:03;;;;;;;;;;;;;;;8.04;100.00;96043.81;1278652;23;19904;-65
2021/05/27 00:30:34;;;;;;;;;;;;;;;8.04;100.00;96033.97;1272500;23;19912;-65
2021/05/27 00:31:04;;;;;;;;;;;;;;;8.04;100.00;96044.63;1278604;23;19904;-65
2021/05/27 00:31:34;;;;;;;;;;;;;;;8.07;100.00;96043.31;1278515;23;19904;-65
2021/05/27 00:32:05;;;;;;;;;;;;;;;8.06;100.00;96037.19;1278523;23;19904;-65
2021/05/27 00:32:35;;;;;;;;;;;;;;;8.03;100.00;96036.88;1278990;23;20322;-66
2021/05/27 00:33:05;;;;;;;;;;;;;;;8.03;100.00;96037.69;1278940;23;20314;-65
2021/05/27 00:33:36;;;;;;;;;;;;;;;8.06;100.00;96033.72;1278847;23;20053;-65
2021/05/27 00:34:06;;;;;;;;;;;;;;;8.06;100.00;96036.38;1278976;23;19912;-65
2021/05/27 00:34:36;;;;;;;;;;;;;;;8.06;100.00;96031.06;1279040;23;19904;-65
2021/05/27 00:35:07;;;;;;;;;;;;;;;8.08;100.00;96034.25;1278871;23;20270;-65
2021/05/27 00:35:37;;;;;;;;;;;;;;;8.08;100.00;96034.25;1284543;23;19904;-66
2021/05/27 00:36:07;;;;;;;;;;;;;;;8.09;100.00;96035.88;1278509;23;19904;-66
2021/05/27 00:36:38;;;;;;;;;;;;;;;8.09;100.00;96033.22;1278587;23;19987;-65
2021/05/27 00:37:08;;;;;;;;;;;;;;;8.08;100.00;96026.28;1271985;23;19915;-66
2021/05/27 00:37:38;;;;;;;;;;;;;;;8.05;100.00;96032.91;1272428;23;20346;-66
2021/05/27 00:38:08;;;;;;;;;;;;;;;8.07;100.00;96032.66;1278611;23;19904;-66
2021/05/27 00:38:39;;;;;;;;;;;;;;;8.03;100.00;96027.03;1278472;23;19931;-65
2021/05/27 00:39:09;;;;;;;;;;;;;;;8.01;100.00;96037.13;1278839;23;19904;-65
2021/05/27 00:39:39;;;;;;;;;;;;;;;8.04;100.00;96030.53;1278898;23;19908;-65
2021/05/27 00:40:10;;;;;;;;;;;;;;;8.05;100.00;96037.44;1278932;23;19947;-65
2021/05/27 00:40:41;;;;;;;;;;;;;;;8.07;100.00;96032.66;1278850;23;20384;-65
2021/05/27 00:41:11;;;;;;;;;;;;;;;8.03;100.00;96035.00;1278960;23;19958;-66
2021/05/27 00:41:41;;;;;;;;;;;;;;;8.02;100.00;96032.59;1278839;23;19912;-65
2021/05/27 00:42:11;;;;;;;;;;;;;;;8.00;100.00;96032.06;1278871;23;19904;-65
2021/05/27 00:42:42;;;;;;;;;;;;;;;8.03;100.00;96031.56;1278981;23;19934;-65
2021/05/27 00:43:12;;;;;;;;;;;;;;;7.99;100.00;96039.25;1278942;23;20230;-65
2021/05/27 00:43:42;;;;;;;;;;;;;;;7.98;100.00;96031.50;1278914;23;19908;-65
2021/05/27 00:44:19;;;;;;;;;;;;;;;8.01;100.00;96028.34;1278974;23;20234;-65
2021/05/27 00:45:02;;;;;;;;;;;;;;;8.03;100.00;96034.22;1278855;23;19988;-65
2021/05/27 00:45:33;;;;;;;;;;;;;;;8.02;100.00;96028.09;1278802;23;19909;-65
2021/05/27 00:46:03;;;;;;;;;;;;;;;8.02;100.00;96032.59;1278878;23;20242;-65
2021/05/27 00:46:33;;;;;;;;;;;;;;;8.03;100.00;96042.19;1278890;23;19904;-65
2021/05/27 00:47:06;;;;;;;;;;;;;;;8.01;100.00;96036.34;1278355;23;19947;-65
2021/05/27 00:47:37;;;;;;;;;;;;;;;8.01;100.00;96034.47;1278823;23;19904;-65
2021/05/27 00:48:07;;;;;;;;;;;;;;;7.98;100.00;96034.16;1278833;23;20314;-65
2021/05/27 00:48:57;;;;;;;;;;;;;;;7.98;100.00;96029.66;1278934;23;19915;-65
2021/05/27 00:49:27;;;;;;;;;;;;;;;8.00;100.00;96032.88;1278885;23;19912;-65
2021/05/27 00:49:58;;;;;;;;;;;;;;;7.99;100.00;96033.13;1278919;23;20349;-65
2021/05/27 00:50:28;;;;;;;;;;;;;;;7.99;100.00;96036.59;1278834;23;19908;-65
2021/05/27 00:50:58;;;;;;;;;;;;;;;8.03;100.00;96034.22;1278885;23;19908;-65
2021/05/27 00:51:29;;;;;;;;;;;;;;;7.99;100.00;96028.63;1278896;23;20274;-65
2021/05/27 00:51:59;;;;;;;;;;;;;;;8.00;100.00;96029.41;1278879;23;19908;-65
2021/05/27 00:52:30;;;;;;;;;;;;;;;8.01;100.00;96037.13;1278551;23;19904;-65
2021/05/27 00:53:01;;;;;;;;;;;;;;;8.02;100.00;96035.28;1278991;23;19908;-65
2021/05/27 00:53:31;;;;;;;;;;;;;;;8.00;100.00;96029.41;1279039;23;19908;-65
2021/05/27 00:54:01;;;;;;;;;;;;;;;7.97;100.00;96032.56;1278973;23;20334;-65
2021/05/27 00:54:31;;;;;;;;;;;;;;;7.99;100.00;96038.47;1278451;23;19904;-65
2021/05/27 00:55:03;;;;;;;;;;;;;;;8.00;100.00;96034.72;1272446;23;19904;-65
2021/05/27 00:55:33;;;;;;;;;;;;;;;8.01;100.00;96037.13;1266197;23;20319;-65
2021/05/27 00:56:04;;;;;;;;;;;;;;;7.98;100.00;96036.81;1266594;23;19905;-65
2021/05/27 00:56:34;;;;;;;;;;;;;;;7.97;100.00;96044.00;1272431;23;19932;-65
2021/05/27 00:57:04;;;;;;;;;;;;;;;8.00;100.00;96037.41;1272329;23;19967;-65
2021/05/27 00:57:35;;;;;;;;;;;;;;;7.98;100.00;96036.81;1272486;23;19912;-65
2021/05/27 00:58:06;;;;;;;;;;;;;;;7.99;100.00;96038.47;1278683;23;19939;-65
2021/05/27 00:58:36;;;;;;;;;;;;;;;7.98;100.00;96042.16;1278709;23;20226;-65
2021/05/27 00:59:06;;;;;;;;;;;;;;;7.99;100.00;96043.78;1278650;23;19908;-65
2021/05/27 00:59:37;;;;;;;;;;;;;;;7.99;100.00;96041.91;1278984;23;19904;-66
2021/05/27 01:00:09;;;;;;;;;;;;;;;7.98;100.00;96045.59;1278495;23;20341;-65
2021/05/27 01:00:39;;;;;;;;;;;;;;;7.95;100.00;96040.00;1278511;23;19911;-65
2021/05/27 01:01:10;;;;;;;;;;;;;;;7.92;100.00;96048.47;1278641;23;20273;-65
2021/05/27 01:01:40;;;;;;;;;;;;;;;7.94;100.00;96046.38;1278581;23;19904;-65
2021/05/27 01:02:10;;;;;;;;;;;;;;;7.97;100.00;96045.88;1278768;23;19958;-65
2021/05/27 01:02:41;;;;;;;;;;;;;;;7.95;100.00;96043.47;1278358;23;19978;-66
2021/05/27 01:03:12;;;;;;;;;;;;;;;7.94;100.00;96047.19;1278338;23;20350;-66
2021/05/27 01:03:42;;;;;;;;;;;;;;;7.93;100.00;96052.75;1278583;23;19998;-67
2021/05/27 01:04:13;;;;;;;;;;;;;;;7.90;100.00;96046.09;1278639;23;19928;-66
2021/05/27 01:04:43;;;;;;;;;;;;;;;7.91;100.00;96049.53;1272087;23;19901;-65
2021/05/27 01:05:14;;;;;;;;;;;;;;;7.93;100.00;96048.22;1272426;23;19935;-65
2021/05/27 01:05:44;;;;;;;;;;;;;;;7.93;100.00;96050.88;1272494;23;19904;-66
2021/05/27 01:06:14;;;;;;;;;;;;;;;7.93;100.00;96052.75;1272524;23;19909;-65
2021/05/27 01:06:45;;;;;;;;;;;;;;;7.92;100.00;96051.94;1279060;23;20432;-63
2021/05/27 01:07:15;;;;;;;;;;;;;;;7.93;100.00;96044.75;1278668;23;20334;-64
2021/05/27 01:07:45;;;;;;;;;;;;;;;7.97;100.00;96051.19;1278631;23;19905;-64
2021/05/27 01:08:15;;;;;;;;;;;;;;;7.93;100.00;96055.41;1279126;23;19912;-64
2021/05/27 01:08:46;;;;;;;;;;;;;;;7.94;100.00;96052.50;1279058;23;19904;-64
2021/05/27 01:09:16;;;;;;;;;;;;;;;7.92;100.00;96051.16;1279402;23;19923;-64
2021/05/27 01:09:46;;;;;;;;;;;;;;;7.91;100.00;96054.88;1279361;23;20230;-64
2021/05/27 01:10:17;;;;;;;;;;;;;;;7.92;100.00;96061.78;1272643;23;19904;-64
2021/05/27 01:10:47;;;;;;;;;;;;;;;7.94;100.00;96052.50;1272835;23;19911;-64
2021/05/27 01:11:17;;;;;;;;;;;;;;;7.94;100.00;96057.84;1272810;23;19904;-64
2021/05/27 01:11:48;;;;;;;;;;;;;;;7.95;100.00;96059.44;1273022;23;19904;-64
2021/05/27 01:12:18;;;;;;;;;;;;;;;7.94;100.00;96057.03;1279165;23;19904;-64
2021/05/27 01:12:48;;;;;;;;;;;;;;;7.96;100.00;96054.91;1279353;23;19912;-64
2021/05/27 01:13:21;;;;;;;;;;;;;;;7.99;100.00;96057.88;1279408;23;19904;-64
2021/05/27 01:13:51;;;;;;;;;;;;;;;7.96;100.00;96055.72;1279413;23;19905;-64
2021/05/27 01:15:29;;;;;;;;;;;;;;;7.98;100.00;96060.78;1279392;23;19908;-65
2021/05/27 01:15:59;;;;;;;;;;;;;;;7.95;100.00;96059.44;1279422;23;19950;-65
2021/05/27 01:16:29;;;;;;;;;;;;;;;7.97;100.00;96054.66;1279426;23;20261;-65
2021/05/27 01:17:00;;;;;;;;;;;;;;;7.95;100.00;96056.78;1279383;23;19932;-64
2021/05/27 01:17:30;;;;;;;;;;;;;;;7.94;100.00;96060.50;1279254;23;19967;-65
2021/05/27 01:18:01;;;;;;;;;;;;;;;7.96;100.00;96054.91;1279450;23;19911;-65
2021/05/27 01:18:32;;;;;;;;;;;;;;;7.99;100.00;96065.06;1279528;23;19963;-64
2021/05/27 01:19:02;;;;;;;;;;;;;;;7.98;100.00;96061.56;1279340;23;19904;-64
2021/05/27 01:19:32;;;;;;;;;;;;;;;7.99;100.00;96065.06;1279445;23;19904;-65
2021/05/27 01:20:07;;;;;;;;;;;;;;;8.00;100.00;96061.34;1279441;23;19958;-64
2021/05/27 01:20:38;;;;;;;;;;;;;;;8.01;100.00;96066.41;1279463;23;20226;-64
2021/05/27 01:21:08;;;;;;;;;;;;;;;7.96;100.00;96062.91;1280241;23;19986;-65
2021/05/27 01:21:42;;;;;;;;;;;;;;;8.00;100.00;96064.81;1281689;23;19904;-65
2021/05/27 01:22:12;;;;;;;;;;;;;;;8.00;100.00;96058.69;1281350;23;20245;-65
2021/05/27 01:22:44;;;;;;;;;;;;;;;7.99;100.00;96065.88;1281343;23;19900;-65
2021/05/27 01:23:14;;;;;;;;;;;;;;;8.02;100.00;96060.03;1281549;23;19931;-65
2021/05/27 01:23:45;;;;;;;;;;;;;;;8.00;100.00;96078.13;1279323;23;20310;-65
2021/05/27 01:24:15;;;;;;;;;;;;;;;7.98;100.00;96060.78;1279492;23;19929;-65
2021/05/27 01:24:45;;;;;;;;;;;;;;;7.93;100.00;96064.19;1279131;23;19931;-65
2021/05/27 01:25:16;;;;;;;;;;;;;;;7.91;100.00;96065.50;1278896;23;20306;-65
2021/05/27 01:25:49;;;;;;;;;;;;;;;7.89;100.00;96070.28;1279005;23;19947;-65
2021/05/27 01:26:20;;;;;;;;;;;;;;;7.88;100.00;96066.00;1279125;23;19907;-64
2021/05/27 01:26:50;;;;;;;;;;;;;;;7.88;100.00;96071.31;1279349;23;19904;-65
2021/05/27 01:27:21;;;;;;;;;;;;;;;7.88;100.00;96066.81;1279327;23;19904;-65
2021/05/27 01:27:51;;;;;;;;;;;;;;;7.89;100.00;96071.09;1279428;23;19900;-65
2021/05/27 01:28:21;;;;;;;;;;;;;;;7.92;100.00;96064.44;1279447;23;20273;-65
2021/05/27 01:28:51;;;;;;;;;;;;;;;7.93;100.00;96063.38;1279389;23;19900;-65
2021/05/27 01:29:22;;;;;;;;;;;;;;;7.93;100.00;96064.19;1279451;23;19978;-65
2021/05/27 01:29:52;;;;;;;;;;;;;;;7.94;100.00;96067.69;1279331;23;19901;-65
2021/05/27 01:30:23;;;;;;;;;;;;;;;7.96;100.00;96061.03;1279410;23;19991;-64
2021/05/27 01:30:53;;;;;;;;;;;;;;;7.92;100.00;96061.78;1279379;23;19904;-64
2021/05/27 01:31:23;;;;;;;;;;;;;;;7.90;100.00;96070.03;1279371;23;19904;-65
2021/05/27 01:31:54;;;;;;;;;;;;;;;7.89;100.00;96067.63;1279362;23;19900;-65
2021/05/27 01:32:24;;;;;;;;;;;;;;;7.86;100.00;96057.47;1279100;23;19904;-64
2021/05/27 01:32:54;;;;;;;;;;;;;;;7.88;100.00;96063.34;1279424;23;19906;-65
2021/05/27 01:33:24;;;;;;;;;;;;;;;7.86;100.00;96057.47;1279444;23;19904;-65
2021/05/27 01:33:55;;;;;;;;;;;;;;;7.87;100.00;96065.19;1279383;23;19904;-65
2021/05/27 01:34:25;;;;;;;;;;;;;;;7.89;100.00;96062.31;1279474;23;19966;-66
2021/05/27 01:34:55;;;;;;;;;;;;;;;7.89;100.00;96063.09;1279451;23;19951;-65
2021/05/27 01:35:26;;;;;;;;;;;;;;;7.93;100.00;96061.53;1279016;23;20310;-65
2021/05/27 01:35:57;;;;;;;;;;;;;;;7.92;100.00;96064.44;1279032;23;19907;-65
2021/05/27 01:36:27;;;;;;;;;;;;;;;7.92;100.00;96064.44;1273027;23;19911;-65
2021/05/27 01:36:57;;;;;;;;;;;;;;;7.88;100.00;96066.00;1272923;23;19901;-64
2021/05/27 01:37:27;;;;;;;;;;;;;;;7.85;100.00;96069.19;1278874;23;19904;-66
2021/05/27 01:37:58;;;;;;;;;;;;;;;7.86;100.00;96062.78;1278956;23;19907;-65
2021/05/27 01:38:28;;;;;;;;;;;;;;;7.86;100.00;96068.13;1279438;23;19943;-64
2021/05/27 01:38:59;;;;;;;;;;;;;;;7.86;100.00;96065.47;1279384;23;19903;-64
2021/05/27 01:39:29;;;;;;;;;;;;;;;7.87;100.00;96059.88;1279440;23;19904;-64
2021/05/27 01:40:01;;;;;;;;;;;;;;;7.87;100.00;96064.41;1279386;23;19901;-64
2021/05/27 01:40:31;;;;;;;;;;;;;;;7.89;100.00;96064.97;1279464;23;20219;-64
2021/05/27 01:41:02;;;;;;;;;;;;;;;7.91;100.00;96068.16;1279351;23;19900;-64
2021/05/27 01:41:32;;;;;;;;;;;;;;;7.90;100.00;96063.91;1279413;23;19904;-64
2021/05/27 01:42:03;;;;;;;;;;;;;;;7.89;100.00;96062.31;1279312;23;19923;-64
2021/05/27 01:42:33;;;;;;;;;;;;;;;7.91;100.00;96068.97;1278749;23;19904;-64
2021/05/27 01:43:03;;;;;;;;;;;;;;;7.95;100.00;96071.94;1279062;23;19896;-64
2021/05/27 01:43:34;;;;;;;;;;;;;;;7.91;100.00;96074.28;1279071;23;19987;-64
2021/05/27 01:44:04;;;;;;;;;;;;;;;7.88;100.00;96064.13;1278995;23;19906;-65
2021/05/27 01:44:34;;;;;;;;;;;;;;;7.89;100.00;96065.78;1278924;23;19911;-65
2021/05/27 01:45:05;;;;;;;;;;;;;;;7.88;100.00;96071.31;1279071;23;19923;-64
2021/05/27 01:45:35;;;;;;;;;;;;;;;7.88;100.00;96069.47;1272769;23;19991;-64
2021/05/27 01:46:05;;;;;;;;;;;;;;;7.87;100.00;96064.41;1272834;23;19953;-64
2021/05/27 01:46:36;;;;;;;;;;;;;;;7.88;100.00;96073.97;1279056;23;19904;-64
2021/05/27 01:47:06;;;;;;;;;;;;;;;7.84;100.00;96072.91;1279028;23;20269;-64
2021/05/27 01:47:36;;;;;;;;;;;;;;;7.82;100.00;96071.25;1279426;23;19904;-64
2021/05/27 01:48:07;;;;;;;;;;;;;;;7.81;100.00;96072.31;1279232;23;19900;-64
2021/05/27 01:48:37;;;;;;;;;;;;;;;7.83;100.00;96064.13;1279454;23;19904;-64
2021/05/27 01:49:07;;;;;;;;;;;;;;;7.78;100.00;96062.19;1279389;23;19935;-64
2021/05/27 01:49:41;;;;;;;;;;;;;;;7.78;100.00;96070.19;1279395;23;19939;-64
2021/05/27 01:50:11;;;;;;;;;;;;;;;7.80;100.00;96069.94;1279343;23;19904;-64
2021/05/27 01:50:42;;;;;;;;;;;;;;;7.82;100.00;96065.16;1279361;23;20336;-64
2021/05/27 01:51:12;;;;;;;;;;;;;;;7.82;100.00;96062.47;1279333;23;19999;-64
2021/05/27 01:51:49;;;;;;;;;;;;;;;7.79;100.00;96066.47;1279445;23;19953;-64
2021/05/27 01:52:19;;;;;;;;;;;;;;;7.79;100.00;96078.97;1279320;23;19919;-64
2021/05/27 01:52:50;;;;;;;;;;;;;;;7.77;100.00;96075.72;1279038;23;19927;-64
2021/05/27 01:53:20;;;;;;;;;;;;;;;7.79;100.00;96078.97;1279385;23;20043;-64
2021/05/27 01:53:50;;;;;;;;;;;;;;;7.79;100.00;96069.13;1279195;23;19908;-64
2021/05/27 01:54:20;;;;;;;;;;;;;;;7.81;100.00;96071.53;1279160;23;19904;-64
2021/05/27 01:54:51;;;;;;;;;;;;;;;7.81;100.00;96075.00;1279335;23;19931;-64
2021/05/27 01:55:21;;;;;;;;;;;;;;;7.80;100.00;96076.03;1279345;23;19911;-64
2021/05/27 01:55:51;;;;;;;;;;;;;;;7.80;100.00;96075.25;1279451;23;20237;-64
2021/05/27 01:56:22;;;;;;;;;;;;;;;7.76;100.00;96077.59;1279247;23;20364;-64
2021/05/27 01:56:52;;;;;;;;;;;;;;;7.78;100.00;96077.38;1279433;23;19978;-64
2021/05/27 01:57:22;;;;;;;;;;;;;;;7.81;100.00;96076.84;1279327;23;19907;-64
2021/05/27 01:57:52;;;;;;;;;;;;;;;7.81;100.00;96075.00;1279295;23;20230;-64
2021/05/27 01:58:23;;;;;;;;;;;;;;;7.82;100.00;96070.47;1279302;23;19911;-64
2021/05/27 01:59:00;;;;;;;;;;;;;;;7.84;100.00;96079.03;1279379;23;19904;-64
2021/05/27 01:59:31;;;;;;;;;;;;;;;7.76;100.00;96074.94;1279366;23;20336;-64
2021/05/27 02:00:02;;;;;;;;;;;;;;;7.74;100.00;96074.38;1279457;23;19904;-64
2021/05/27 02:00:32;;;;;;;;;;;;;;;7.76;100.00;96074.94;1280191;23;20011;-65
2021/05/27 02:01:02;;;;;;;;;;;;;;;7.76;100.00;96074.94;1279791;23;20365;-65
2021/05/27 02:01:32;;;;;;;;;;;;;;;7.74;100.00;96069.06;1280428;23;19915;-64
2021/05/27 02:02:03;;;;;;;;;;;;;;;7.75;100.00;96069.88;1279264;23;19927;-64
2021/05/27 02:02:33;;;;;;;;;;;;;;;7.75;100.00;96070.66;1280408;23;19909;-64
2021/05/27 02:03:03;;;;;;;;;;;;;;;7.76;100.00;96077.59;1279622;23;19908;-65
2021/05/27 02:03:33;;;;;;;;;;;;;;;7.76;100.00;96074.94;1279342;23;19923;-65
2021/05/27 02:04:04;;;;;;;;;;;;;;;7.77;100.00;96073.06;1279056;23;19904;-65
2021/05/27 02:04:34;;;;;;;;;;;;;;;7.72;100.00;96068.50;1272596;23;20314;-65
2021/05/27 02:05:05;;;;;;;;;;;;;;;7.79;100.00;96071.78;1272668;23;19940;-65
2021/05/27 02:05:35;;;;;;;;;;;;;;;7.79;100.00;96074.44;1266701;23;19932;-65
2021/05/27 02:06:05;;;;;;;;;;;;;;;7.79;100.00;96074.44;1272765;23;19897;-65
2021/05/27 02:06:35;;;;;;;;;;;;;;;7.82;100.00;96071.25;1278813;23;19908;-65
2021/05/27 02:07:09;;;;;;;;;;;;;;;7.81;100.00;96074.19;1278821;23;19900;-65
2021/05/27 02:07:40;;;;;;;;;;;;;;;7.78;100.00;96077.38;1279347;23;19915;-65
2021/05/27 02:08:11;;;;;;;;;;;;;;;7.71;100.00;96069.56;1278698;23;19919;-65
2021/05/27 02:09:07;;;;;;;;;;;;;;;7.72;100.00;96068.50;1279061;23;19908;-66
2021/05/27 02:09:31;;;;;;;;;;;;;;;7.75;100.00;96076.00;1274074;23;19908;-65
2021/05/27 02:10:01;;;;;;;;;;;;;;;7.78;100.00;96074.72;1275067;23;19896;-66
2021/05/27 02:10:32;;;;;;;;;;;;;;;7.76;100.00;96077.59;1275149;23;19924;-65
2021/05/27 02:11:02;;;;;;;;;;;;;;;7.80;100.00;96077.91;1279176;23;19971;-65
2021/05/27 02:11:32;;;;;;;;;;;;;;;7.81;100.00;96079.50;1281566;23;19904;-64
2021/05/27 02:12:03;;;;;;;;;;;;;;;7.81;100.00;96077.66;1275131;23;19964;-65
2021/05/27 02:12:33;;;;;;;;;;;;;;;7.81;100.00;96077.66;1274639;23;19903;-65
2021/05/27 02:13:03;;;;;;;;;;;;;;;7.84;100.00;96086.19;1269285;23;19917;-65
2021/05/27 02:13:34;;;;;;;;;;;;;;;7.83;100.00;96080.06;1275127;23;19904;-65
2021/05/27 02:14:04;;;;;;;;;;;;;;;7.82;100.00;96076.59;1280843;23;20226;-66
2021/05/27 02:14:35;;;;;;;;;;;;;;;7.82;100.00;96081.09;1281021;23;19910;-65
2021/05/27 02:15:05;;;;;;;;;;;;;;;7.80;100.00;96084.03;1281991;23;19915;-65
2021/05/27 02:15:37;;;;;;;;;;;;;;;7.78;100.00;96080.03;1281598;23;19909;-65
2021/05/27 02:16:07;;;;;;;;;;;;;;;7.77;100.00;96086.38;1281379;23;20301;-65
2021/05/27 02:16:37;;;;;;;;;;;;;;;7.74;100.00;96081.56;1280973;23;19908;-65
2021/05/27 02:17:07;;;;;;;;;;;;;;;7.78;100.00;96088.00;1280891;23;19893;-65
2021/05/27 02:17:38;;;;;;;;;;;;;;;7.78;100.00;96078.16;1274522;23;19951;-65
2021/05/27 02:18:08;;;;;;;;;;;;;;;7.78;100.00;96078.16;1275144;23;19893;-66
2021/05/27 02:18:38;;;;;;;;;;;;;;;7.77;100.00;96081.06;1281221;23;19916;-65
2021/05/27 02:19:09;;;;;;;;;;;;;;;7.78;100.00;96080.81;1280974;23;19902;-65
2021/05/27 02:19:39;;;;;;;;;;;;;;;7.76;100.00;96080.25;1281535;23;19931;-65
2021/05/27 02:20:10;;;;;;;;;;;;;;;7.74;100.00;96082.38;1281542;23;19896;-65
2021/05/27 02:20:40;;;;;;;;;;;;;;;7.76;100.00;96076.78;1282081;23;19911;-65
2021/05/27 02:21:10;;;;;;;;;;;;;;;7.75;100.00;96080.50;1281336;23;19892;-65
2021/05/27 02:21:41;;;;;;;;;;;;;;;7.72;100.00;96081.00;1281376;23;19961;-65
2021/05/27 02:22:11;;;;;;;;;;;;;;;7.66;100.00;96085.47;1282074;23;19926;-65
2021/05/27 02:22:41;;;;;;;;;;;;;;;7.65;100.00;96085.72;1281304;23;19904;-65
2021/05/27 02:23:12;;;;;;;;;;;;;;;7.64;100.00;96086.78;1281532;23;19916;-64
2021/05/27 02:23:42;;;;;;;;;;;;;;;7.59;100.00;96084.06;1280429;23;19908;-65
2021/05/27 02:24:13;;;;;;;;;;;;;;;7.62;100.00;96089.66;1279559;23;19896;-64
2021/05/27 02:24:43;;;;;;;;;;;;;;;7.65;100.00;96088.38;1279345;23;19908;-65
2021/05/27 02:25:14;;;;;;;;;;;;;;;7.64;100.00;96084.91;1279433;23;19896;-65
2021/05/27 02:25:44;;;;;;;;;;;;;;;7.64;100.00;96074.28;1279721;23;20345;-66
2021/05/27 02:26:14;;;;;;;;;;;;;;;7.63;100.00;96079.84;1279880;23;19920;-64
2021/05/27 02:26:44;;;;;;;;;;;;;;;7.63;100.00;96080.66;1280306;23;19912;-64
2021/05/27 02:27:15;;;;;;;;;;;;;;;7.62;100.00;96081.69;1279643;23;19999;-65
2021/05/27 02:27:45;;;;;;;;;;;;;;;7.63;100.00;96080.66;1279888;23;19971;-64
2021/05/27 02:28:15;;;;;;;;;;;;;;;7.64;100.00;96074.28;1280174;23;19901;-65
2021/05/27 02:28:45;;;;;;;;;;;;;;;7.65;100.00;96083.06;1273490;23;20359;-65
2021/05/27 02:29:16;;;;;;;;;;;;;;;7.63;100.00;96085.97;1273435;23;19955;-64
2021/05/27 02:29:46;;;;;;;;;;;;;;;7.64;100.00;96076.13;1273848;23;19998;-65
2021/05/27 02:30:16;;;;;;;;;;;;;;;7.63;100.00;96077.19;1279738;23;19900;-64
2021/05/27 02:30:47;;;;;;;;;;;;;;;7.65;100.00;96077.75;1273535;23;19915;-64
2021/05/27 02:31:17;;;;;;;;;;;;;;;7.65;100.00;96083.06;1267816;23;19907;-65
2021/05/27 02:31:48;;;;;;;;;;;;;;;7.68;100.00;96080.72;1267592;23;19964;-64
2021/05/27 02:32:18;;;;;;;;;;;;;;;7.67;100.00;96065.78;1273336;23;19901;-65
2021/05/27 02:32:48;;;;;;;;;;;;;;;7.69;100.00;96081.50;1278742;23;19908;-64
2021/05/27 02:33:19;;;;;;;;;;;;;;;7.70;100.00;96070.63;1279103;23;19900;-64
2021/05/27 02:33:50;;;;;;;;;;;;;;;7.71;100.00;96068.75;1279031;23;19963;-64
2021/05/27 02:34:20;;;;;;;;;;;;;;;7.72;100.00;96068.50;1279139;23;20213;-65
2021/05/27 02:34:50;;;;;;;;;;;;;;;7.73;100.00;96067.47;1278978;23;20215;-65
2021/05/27 02:35:20;;;;;;;;;;;;;;;7.71;100.00;96064.22;1279118;23;19900;-65
2021/05/27 02:35:51;;;;;;;;;;;;;;;7.70;100.00;96061.84;1279051;23;19908;-64
2021/05/27 02:36:21;;;;;;;;;;;;;;;7.70;100.00;96057.31;1279156;23;19904;-64
2021/05/27 02:36:51;;;;;;;;;;;;;;;7.72;100.00;96060.53;1279184;23;20017;-66
2021/05/27 02:37:22;;;;;;;;;;;;;;;7.70;100.00;96054.66;1279161;23;20016;-65
2021/05/27 02:37:52;;;;;;;;;;;;;;;7.65;100.00;96062.56;1278968;23;19908;-65
2021/05/27 02:38:22;;;;;;;;;;;;;;;7.65;100.00;96067.91;1279162;23;19904;-65
2021/05/27 02:38:53;;;;;;;;;;;;;;;7.65;100.00;96056.47;1279006;23;19908;-65
2021/05/27 02:39:23;;;;;;;;;;;;;;;7.63;100.00;96059.38;1279205;23;19978;-65
2021/05/27 02:39:53;;;;;;;;;;;;;;;7.65;100.00;96057.25;1278832;23;19932;-65
2021/05/27 02:40:23;;;;;;;;;;;;;;;7.66;100.00;96064.19;1278941;23;19904;-65
2021/05/27 02:40:54;;;;;;;;;;;;;;;7.65;100.00;96057.25;1279064;23;19908;-65